createdAt,value
2023-02-15T00:03:00.041Z,27.144
2023-02-15T00:18:01.991Z,26.845
2023-02-15T00:33:03.946Z,26.8481
2023-02-15T00:48:05.892Z,26.507
2023-02-15T01:03:07.741Z,26.6432
2023-02-15T01:18:09.619Z,26.1721
2023-02-15T01:33:11.444Z,26.2402
2023-02-15T01:48:13.294Z,25.61
2023-02-15T02:03:15.118Z,25.1061
2023-02-15T02:18:17.019Z,25.0863
2023-02-15T02:33:18.868Z,25.0046
2023-02-15T02:48:20.735Z,24.4524
2023-02-15T03:03:22.565Z,23.9293
2023-02-15T03:18:24.488Z,25.0343
2023-02-15T03:33:26.324Z,24.7285
2023-02-15T03:48:28.188Z,24.0816
2023-02-15T04:03:30.058Z,25.3525
2023-02-15T04:18:31.894Z,24.8096
2023-02-15T04:33:33.754Z,24.0754
2023-02-15T04:48:35.608Z,24.7774
2023-02-15T05:03:37.428Z,24.3775
2023-02-15T05:18:39.245Z,24.4035
2023-02-15T05:33:41.123Z,24.4784
2023-02-15T05:48:42.949Z,24.2215
2023-02-15T06:03:44.879Z,23.3864
2023-02-15T06:18:46.708Z,24.7025
2023-02-15T06:33:48.602Z,23.9875
2023-02-15T06:48:50.464Z,24.4685
2023-02-15T07:03:52.390Z,24.8195
2023-02-15T07:18:54.264Z,24.0005
2023-02-15T07:33:56.126Z,23.4935
2023-02-15T07:48:57.935Z,24.9396
2023-02-15T08:03:59.918Z,23.9906
2023-02-15T08:19:01.890Z,23.3406
2023-02-15T08:34:03.818Z,24.8034
2023-02-15T08:49:05.755Z,24.3577
2023-02-15T09:04:07.685Z,24.1757
2023-02-15T09:19:09.689Z,24.2834
2023-02-15T09:34:11.616Z,24.2277
2023-02-15T09:49:13.550Z,24.6765
2023-02-15T10:04:15.588Z,23.8445
2023-02-15T10:19:17.483Z,24.3843
2023-02-15T10:34:19.409Z,24.0296
2023-02-15T10:49:21.412Z,24.6146
2023-02-15T11:04:23.365Z,23.4607
2023-02-15T11:19:25.324Z,24.5205
2023-02-15T11:34:27.315Z,23.4935
2023-02-15T11:49:29.211Z,24.4784
2023-02-15T12:04:31.127Z,23.9157
2023-02-15T12:19:33.153Z,24.2184
2023-02-15T12:34:35.064Z,24.1206
2023-02-15T12:49:36.991Z,24.2574
2023-02-15T13:04:38.914Z,23.6266
2023-02-15T13:19:40.946Z,24.3026
2023-02-15T13:34:42.876Z,24.2376
2023-02-15T13:49:44.782Z,23.5777
2023-02-15T14:04:46.721Z,24.2574
2023-02-15T14:19:48.722Z,23.6365
2023-02-15T14:34:50.628Z,24.2116
2023-02-15T14:49:52.558Z,23.7436
2023-02-15T15:04:54.539Z,24.6406
2023-02-15T15:19:56.479Z,23.9745
2023-02-15T15:34:58.406Z,24.6635
2023-02-15T15:50:00.355Z,25.9833
2023-02-15T16:05:02.302Z,26.0161
2023-02-15T16:20:04.353Z,25.9932
2023-02-15T16:35:06.302Z,26.416
2023-02-15T16:50:08.201Z,26.4649
2023-02-15T17:05:10.205Z,25.987
2023-02-15T17:20:12.152Z,26.208
2023-02-15T17:35:14.106Z,27.1539
2023-02-15T17:50:16.025Z,26.9422
2023-02-15T18:05:18.039Z,26.026
2023-02-15T18:20:20.025Z,25.6843
2023-02-15T18:35:21.952Z,25.3884
2023-02-15T18:50:23.880Z,24.8455
2023-02-15T19:05:25.842Z,25.6484
2023-02-15T19:20:27.781Z,24.9885
2023-02-15T19:35:29.755Z,25.4701
2023-02-15T19:50:31.671Z,25.8663
2023-02-15T20:05:33.612Z,26.0285
2023-02-15T20:20:36.304Z,24.9662
2023-02-15T20:35:38.286Z,26.2984
2023-02-15T20:50:40.202Z,25.8533
2023-02-15T21:05:42.158Z,25.4862
2023-02-15T21:20:44.112Z,25.6905
2023-02-15T21:35:46.045Z,26.3213
2023-02-15T21:50:47.927Z,26.1783
2023-02-15T22:05:49.832Z,26.0842
2023-02-15T22:20:51.746Z,26.1263
2023-02-15T22:35:53.775Z,25.8632
2023-02-15T22:50:55.637Z,25.6942
2023-02-15T23:05:57.523Z,25.9963
2023-02-15T23:20:59.936Z,26.0811
2023-02-15T23:36:01.952Z,26.9298
2023-02-15T23:51:04.097Z,26.4971
